Time;durP1;ratioP1;P1;durP2;ratioP2;P2;SDS_P1;SDS_P2;PMS_P1;PMS_P2;Temp;Humidity;BMP_temperature;BMP_pressure;BME280_temperature;BME280_humidity;BME280_pressure;Samples;Min_cycle;Max_cycle;Signal;HPM_P1;HPM_P2
2022/03/09 00:01:23;;;;;;;11.32;7.20;;;1.30;99.90;;;;;;5070869;28;20431;-58
2022/03/09 00:03:49;;;;;;;14.40;8.13;;;1.40;99.90;;;;;;5050334;28;20050;-59
2022/03/09 00:06:15;;;;;;;15.15;7.55;;;1.30;99.90;;;;;;5064768;28;20028;-58
2022/03/09 00:08:40;;;;;;;12.68;7.57;;;1.40;99.90;;;;;;5070630;28;20040;-59
2022/03/09 00:11:06;;;;;;;15.63;8.07;;;1.40;99.90;;;;;;5069309;28;20036;-59
2022/03/09 00:13:31;;;;;;;14.48;7.75;;;1.30;99.90;;;;;;5058318;28;20059;-59
2022/03/09 00:15:57;;;;;;;11.85;7.80;;;1.30;99.90;;;;;;5069849;28;20064;-59
2022/03/09 00:18:22;;;;;;;13.00;7.75;;;1.30;99.90;;;;;;5070607;28;20060;-59
2022/03/09 00:20:48;;;;;;;16.33;8.43;;;1.30;99.90;;;;;;5059197;28;20048;-59
2022/03/09 00:23:13;;;;;;;12.85;7.90;;;1.40;99.90;;;;;;5069972;28;20028;-59
2022/03/09 00:25:39;;;;;;;15.65;7.80;;;1.30;99.90;;;;;;5070360;28;20040;-59
2022/03/09 00:28:05;;;;;;;14.48;7.78;;;1.30;99.90;;;;;;5068790;28;20044;-59
2022/03/09 00:30:30;;;;;;;15.40;8.80;;;1.30;99.90;;;;;;5063546;28;20048;-59
2022/03/09 00:32:56;;;;;;;12.82;7.88;;;1.30;99.90;;;;;;5068889;28;20035;-59
2022/03/09 00:35:21;;;;;;;14.40;8.57;;;1.30;99.90;;;;;;5069979;28;20047;-59
2022/03/09 00:37:47;;;;;;;13.90;8.25;;;1.20;99.90;;;;;;5059042;28;20037;-58
2022/03/09 00:40:13;;;;;;;13.45;7.90;;;1.20;99.90;;;;;;5069064;28;20563;-59
2022/03/09 00:42:39;;;;;;;16.25;8.15;;;1.20;99.90;;;;;;5070063;28;20064;-59
2022/03/09 00:45:06;;;;;;;14.50;8.43;;;1.20;99.90;;;;;;5063071;28;20111;-59
2022/03/09 00:47:32;;;;;;;12.23;8.02;;;1.10;99.90;;;;;;5048145;28;20445;-59
2022/03/09 00:49:57;;;;;;;12.80;7.78;;;1.00;99.90;;;;;;5069646;28;20072;-59
2022/03/09 00:52:23;;;;;;;18.48;8.93;;;1.00;99.90;;;;;;5070331;28;20058;-58
2022/03/09 00:54:49;;;;;;;15.57;8.15;;;0.90;99.90;;;;;;5060874;28;20041;-59
2022/03/09 00:57:15;;;;;;;13.20;8.20;;;0.90;99.90;;;;;;5069785;28;20487;-59
2022/03/09 00:59:41;;;;;;;16.75;8.43;;;0.90;99.90;;;;;;5069477;28;20044;-59
2022/03/09 01:02:06;;;;;;;15.90;8.73;;;0.90;99.90;;;;;;5058730;28;20098;-59
2022/03/09 01:04:34;;;;;;;12.63;7.60;;;0.80;99.90;;;;;;5060647;28;20120;-59
2022/03/09 01:06:59;;;;;;;30.42;8.90;;;0.80;99.90;;;;;;5069537;28;20063;-59
2022/03/09 01:09:25;;;;;;;14.52;8.27;;;0.80;99.90;;;;;;5065162;28;20049;-59
2022/03/09 01:11:50;;;;;;;13.75;8.07;;;0.70;99.90;;;;;;5067696;28;20044;-59
2022/03/09 01:14:16;;;;;;;14.40;8.40;;;0.60;99.90;;;;;;5068972;28;20040;-59
2022/03/09 01:16:42;;;;;;;17.20;9.13;;;0.70;99.90;;;;;;5069340;28;20047;-59
2022/03/09 01:19:07;;;;;;;14.02;8.68;;;0.70;99.90;;;;;;5056411;28;20036;-59
2022/03/09 01:21:34;;;;;;;13.88;8.55;;;0.60;99.90;;;;;;5058552;28;20040;-59
2022/03/09 01:24:00;;;;;;;14.70;9.10;;;0.50;99.90;;;;;;5068735;28;20458;-59
2022/03/09 01:26:26;;;;;;;13.27;8.10;;;0.50;99.90;;;;;;5068102;28;20558;-59
2022/03/09 01:28:52;;;;;;;13.95;8.48;;;0.40;99.90;;;;;;5059309;28;20044;-59
2022/03/09 01:31:17;;;;;;;17.58;9.32;;;0.40;99.90;;;;;;5068793;28;20068;-59
2022/03/09 01:33:43;;;;;;;15.50;8.68;;;0.50;99.90;;;;;;5050637;28;20076;-59
2022/03/09 01:36:09;;;;;;;15.52;8.93;;;0.50;99.90;;;;;;5065923;28;20036;-59
2022/03/09 01:38:34;;;;;;;18.38;9.15;;;0.50;99.90;;;;;;5067508;28;20616;-59
2022/03/09 01:41:00;;;;;;;17.70;9.25;;;0.50;99.90;;;;;;5068948;28;20177;-59
2022/03/09 01:43:26;;;;;;;14.63;8.55;;;0.50;99.90;;;;;;5068627;28;20561;-59
2022/03/09 01:45:51;;;;;;;18.95;8.95;;;0.50;99.90;;;;;;5057786;28;20037;-59
2022/03/09 01:48:17;;;;;;;15.98;9.13;;;0.60;99.90;;;;;;5064445;28;20043;-59
2022/03/09 01:50:44;;;;;;;16.35;9.00;;;0.50;99.90;;;;;;5068472;28;20044;-59
2022/03/09 01:53:11;;;;;;;15.50;9.02;;;0.50;99.90;;;;;;5063447;28;20441;-59
2022/03/09 01:55:37;;;;;;;15.27;8.35;;;0.50;99.90;;;;;;5068341;28;20048;-59
2022/03/09 01:58:03;;;;;;;16.17;9.05;;;0.50;99.90;;;;;;5068714;28;20068;-59
2022/03/09 02:00:28;;;;;;;15.95;9.00;;;0.50;99.90;;;;;;5059457;28;20044;-59
2022/03/09 02:02:54;;;;;;;16.08;9.00;;;0.40;99.90;;;;;;5066886;28;20037;-59
2022/03/09 02:05:20;;;;;;;16.83;9.60;;;0.30;99.90;;;;;;5068484;28;20036;-59
2022/03/09 02:10:30;;;;;;;18.80;9.15;;;0.10;99.90;;;;;;5050971;28;20127;-59
2022/03/09 02:12:56;;;;;;;16.52;9.02;;;0.00;99.90;;;;;;5067127;28;20123;-59
2022/03/09 02:15:22;;;;;;;17.77;8.32;;;-0.10;99.90;;;;;;5067884;28;20046;-59
2022/03/09 02:17:47;;;;;;;15.60;9.25;;;-0.20;99.90;;;;;;5064174;28;20533;-59
2022/03/09 02:20:13;;;;;;;17.52;9.40;;;-0.30;99.90;;;;;;5059431;28;20560;-59
2022/03/09 02:22:41;;;;;;;15.15;9.23;;;-0.30;99.90;;;;;;5067930;28;20072;-59
2022/03/09 02:25:11;;;;;;;15.63;9.23;;;-0.30;99.90;;;;;;5061953;28;20036;-59
2022/03/09 02:27:38;;;;;;;17.40;9.68;;;-0.30;99.90;;;;;;5063044;28;20036;-59
2022/03/09 02:30:04;;;;;;;17.60;10.30;;;-0.30;99.90;;;;;;5068171;28;20055;-59
2022/03/09 02:32:30;;;;;;;17.25;9.57;;;-0.40;99.90;;;;;;5068000;28;20040;-59
2022/03/09 02:34:56;;;;;;;15.85;9.02;;;-0.30;99.90;;;;;;5064818;28;20059;-59
2022/03/09 02:37:22;;;;;;;16.20;9.48;;;-0.30;99.90;;;;;;5060838;28;20037;-59
2022/03/09 02:39:48;;;;;;;16.00;9.48;;;-0.30;99.90;;;;;;5067630;28;20646;-59
2022/03/09 02:42:14;;;;;;;16.55;10.13;;;-0.30;99.90;;;;;;5059911;28;20078;-59
2022/03/09 02:44:40;;;;;;;22.83;10.77;;;-0.40;99.90;;;;;;5060210;28;20032;-59
2022/03/09 02:47:05;;;;;;;17.98;10.18;;;-0.30;99.90;;;;;;5077759;22;20080;-60
2022/03/09 02:49:31;;;;;;;23.05;10.45;;;-0.20;99.90;;;;;;5004246;28;20046;-60
2022/03/09 02:51:57;;;;;;;20.02;10.48;;;-0.10;99.90;;;;;;5009282;28;20056;-60
2022/03/09 02:54:22;;;;;;;18.40;9.70;;;-0.10;99.90;;;;;;5017284;28;20037;-61
2022/03/09 02:56:48;;;;;;;18.52;9.70;;;0.00;99.90;;;;;;5026912;28;20171;-61
2022/03/09 02:59:14;;;;;;;20.85;10.85;;;-0.10;99.90;;;;;;4987635;28;20049;-61
2022/03/09 03:01:39;;;;;;;18.40;10.57;;;-0.10;99.90;;;;;;5024491;28;20041;-61
2022/03/09 03:04:05;;;;;;;18.92;10.30;;;-0.10;99.90;;;;;;5028077;28;20095;-61
2022/03/09 03:06:31;;;;;;;18.55;10.50;;;-0.20;99.90;;;;;;5027750;28;20555;-61
2022/03/09 03:09:52;;;;;;;25.83;10.18;;;-0.20;99.90;;;;;;5021904;28;20041;-61
2022/03/09 03:16:23;;;;;;;18.80;9.75;;;-0.50;99.90;;;;;;5006059;28;20046;-60
2022/03/09 03:18:48;;;;;;;18.60;10.15;;;-0.50;99.90;;;;;;5017091;28;20041;-60
2022/03/09 03:21:14;;;;;;;17.30;10.45;;;-0.60;99.90;;;;;;5007889;28;20496;-60
2022/03/09 03:23:40;;;;;;;22.13;10.95;;;-0.70;99.90;;;;;;4973295;28;20040;-60
2022/03/09 03:26:06;;;;;;;20.05;10.65;;;-0.70;99.90;;;;;;5016553;28;20033;-60
2022/03/09 03:28:32;;;;;;;21.52;10.85;;;-0.60;99.90;;;;;;4991047;28;20044;-60
2022/03/09 03:30:57;;;;;;;18.83;10.38;;;-0.50;99.90;;;;;;5014914;28;20038;-61
2022/03/09 03:34:06;;;;;;;19.23;10.00;;;-0.60;99.90;;;;;;5025948;28;20175;-61
2022/03/09 03:36:32;;;;;;;21.85;10.45;;;-0.80;99.90;;;;;;5007290;28;20396;-61
2022/03/09 03:39:36;;;;;;;18.85;9.85;;;-1.10;99.90;;;;;;5027773;28;20025;-61
2022/03/09 03:42:02;;;;;;;19.58;10.85;;;-1.20;99.90;;;;;;5015195;28;20068;-60
2022/03/09 03:44:27;;;;;;;21.52;11.55;;;-1.10;99.90;;;;;;5018666;28;20060;-60
2022/03/09 03:46:53;;;;;;;20.33;11.55;;;-1.00;99.90;;;;;;5007966;28;20112;-60
2022/03/09 03:49:18;;;;;;;19.95;10.85;;;-0.90;99.90;;;;;;5019873;28;20300;-60
2022/03/09 03:51:44;;;;;;;20.17;11.60;;;-0.80;99.90;;;;;;5062443;22;20053;-61
2022/03/09 03:54:10;;;;;;;20.25;11.02;;;-0.70;99.90;;;;;;5030968;28;20033;-61
2022/03/09 03:56:36;;;;;;;21.35;11.70;;;-0.70;99.90;;;;;;5009448;28;20732;-60
2022/03/09 03:59:02;;;;;;;21.65;10.95;;;-0.60;99.90;;;;;;5047957;28;20095;-60
2022/03/09 04:01:27;;;;;;;18.70;10.60;;;-0.50;99.90;;;;;;5034767;28;20064;-61
2022/03/09 04:03:53;;;;;;;26.58;10.95;;;-0.40;99.90;;;;;;5032095;28;20128;-61
2022/03/09 04:09:25;;;;;;;18.67;10.68;;;-0.30;99.90;;;;;;5013464;28;20778;-60
2022/03/09 04:11:50;;;;;;;18.95;10.13;;;-0.30;99.90;;;;;;5016722;28;20037;-60
2022/03/09 04:14:19;;;;;;;21.20;11.63;;;-0.30;99.90;;;;;;5047757;28;20048;-60
2022/03/09 04:16:47;;;;;;;21.92;11.10;;;-0.30;99.90;;;;;;5040541;28;20034;-60
2022/03/09 04:19:12;;;;;;;21.83;10.50;;;-0.30;99.90;;;;;;5023022;28;20050;-60
2022/03/09 04:21:38;;;;;;;20.55;10.48;;;-0.40;99.90;;;;;;5032702;28;20048;-60
2022/03/09 04:24:32;;;;;;;20.63;10.75;;;-0.30;99.90;;;;;;5040668;28;20037;-60
2022/03/09 04:26:57;;;;;;;22.98;11.98;;;-0.30;99.90;;;;;;4996575;28;20050;-60
2022/03/09 04:29:23;;;;;;;20.42;11.05;;;-0.30;99.90;;;;;;5013049;28;20044;-61
2022/03/09 04:38:58;;;;;;;21.35;11.27;;;-0.30;99.90;;;;;;5050025;22;20134;-60
2022/03/09 04:41:25;;;;;;;24.17;11.43;;;-0.40;99.90;;;;;;5012793;28;20104;-60
2022/03/09 04:44:10;;;;;;;23.02;10.50;;;-0.40;99.90;;;;;;5021658;28;20039;-61
2022/03/09 04:46:38;;;;;;;20.73;11.07;;;-0.50;99.90;;;;;;5019038;28;20042;-61
2022/03/09 04:49:03;;;;;;;21.30;11.93;;;-0.50;99.90;;;;;;5014002;28;20095;-61
2022/03/09 04:51:29;;;;;;;18.92;10.90;;;-0.50;99.90;;;;;;5017663;28;20052;-61
2022/03/09 04:53:55;;;;;;;24.70;10.98;;;-0.60;99.90;;;;;;5025556;28;20072;-60
2022/03/09 04:56:21;;;;;;;22.25;10.98;;;-0.70;99.90;;;;;;5017133;28;20049;-60
2022/03/09 04:58:47;;;;;;;21.38;11.68;;;-0.80;99.90;;;;;;4999300;28;20042;-61
2022/03/09 05:01:12;;;;;;;20.88;10.40;;;-0.80;99.90;;;;;;5013862;28;20065;-61
2022/03/09 05:04:36;;;;;;;19.45;11.05;;;-0.90;99.90;;;;;;5027841;28;20025;-60
2022/03/09 05:07:41;;;;;;;20.17;10.52;;;-1.00;99.90;;;;;;4975609;28;20562;-60
2022/03/09 05:10:11;;;;;;;20.77;10.88;;;-1.10;99.90;;;;;;5013838;28;20045;-60
2022/03/09 05:13:19;;;;;;;21.40;10.95;;;-1.10;99.90;;;;;;5029874;28;20120;-60
2022/03/09 05:16:23;;;;;;;21.40;10.98;;;-1.20;99.90;;;;;;5641492;22;20049;-61
2022/03/09 05:18:48;;;;;;;22.67;11.25;;;-1.10;99.90;;;;;;5037061;28;20033;-60
2022/03/09 05:21:14;;;;;;;22.23;11.07;;;-1.10;99.90;;;;;;5030885;28;20034;-60
2022/03/09 05:23:39;;;;;;;28.83;12.35;;;-1.00;99.90;;;;;;5037406;28;20037;-60
2022/03/09 05:26:05;;;;;;;33.13;13.00;;;-0.90;99.90;;;;;;5032543;28;20432;-60
2022/03/09 05:28:31;;;;;;;35.92;12.63;;;-0.80;99.90;;;;;;5032426;28;20038;-61
2022/03/09 05:30:57;;;;;;;29.77;11.40;;;-0.80;99.90;;;;;;5032406;28;20112;-61
2022/03/09 05:33:22;;;;;;;20.60;10.98;;;-0.90;99.90;;;;;;5028810;28;20096;-61
2022/03/09 05:35:48;;;;;;;20.25;10.45;;;-1.00;99.90;;;;;;5042566;28;20029;-61
2022/03/09 05:38:14;;;;;;;19.55;11.00;;;-1.10;99.90;;;;;;5032293;28;20021;-61
2022/03/09 05:40:41;;;;;;;20.27;11.30;;;-1.20;99.90;;;;;;5029993;28;20045;-61
2022/03/09 05:43:07;;;;;;;22.75;11.13;;;-1.30;99.90;;;;;;5043726;28;20108;-61
2022/03/09 05:45:32;;;;;;;22.48;11.40;;;-1.40;99.90;;;;;;5036771;28;20112;-61
2022/03/09 05:47:58;;;;;;;25.52;11.95;;;-1.50;99.90;;;;;;5033324;28;20083;-60
2022/03/09 05:50:24;;;;;;;23.83;10.85;;;-1.40;99.90;;;;;;5029446;28;20041;-61
2022/03/09 05:53:54;;;;;;;19.38;11.30;;;-1.50;99.90;;;;;;5031323;28;20045;-60
2022/03/09 05:56:20;;;;;;;24.70;11.70;;;-1.40;99.90;;;;;;5020683;28;20049;-60
2022/03/09 05:58:45;;;;;;;25.10;11.68;;;-1.40;99.90;;;;;;5033272;28;20087;-60
2022/03/09 06:01:11;;;;;;;20.73;10.80;;;-1.30;99.90;;;;;;5032963;28;20029;-60
2022/03/09 06:03:36;;;;;;;21.10;10.98;;;-1.20;99.90;;;;;;5041599;28;20040;-61
2022/03/09 06:06:02;;;;;;;26.42;11.18;;;-1.30;99.90;;;;;;5045569;28;20040;-59
2022/03/09 06:08:28;;;;;;;20.20;11.80;;;-1.30;99.90;;;;;;5044900;28;20041;-60
2022/03/09 06:10:54;;;;;;;21.08;11.82;;;-1.30;99.90;;;;;;5035298;28;20045;-60
2022/03/09 06:13:19;;;;;;;25.25;11.63;;;-1.30;99.90;;;;;;5044582;28;20410;-60
2022/03/09 06:15:45;;;;;;;21.52;11.40;;;-1.20;99.90;;;;;;5045023;28;20064;-60
2022/03/09 06:18:11;;;;;;;20.67;11.80;;;-1.20;99.90;;;;;;5040905;28;20037;-60
2022/03/09 06:20:37;;;;;;;21.30;12.07;;;-1.10;99.90;;;;;;5026253;28;20091;-60
2022/03/09 06:23:02;;;;;;;23.20;11.75;;;-1.10;99.90;;;;;;5043617;28;20715;-60
2022/03/09 06:25:28;;;;;;;24.35;12.48;;;-1.10;99.90;;;;;;5044100;28;20045;-61
2022/03/09 06:27:54;;;;;;;22.00;11.82;;;-1.00;99.90;;;;;;5038956;28;20044;-60
2022/03/09 06:30:20;;;;;;;24.95;11.50;;;-0.90;99.90;;;;;;5036691;28;20048;-60
2022/03/09 06:39:16;;;;;;;25.90;12.05;;;-0.70;99.90;;;;;;5006312;28;20547;-60
2022/03/09 06:41:44;;;;;;;24.50;11.85;;;-0.70;99.90;;;;;;5021509;28;20045;-61
2022/03/09 06:44:10;;;;;;;31.83;11.82;;;-0.60;99.90;;;;;;5005511;28;20153;-61
2022/03/09 06:46:36;;;;;;;24.80;11.45;;;-0.50;99.90;;;;;;5005789;28;20041;-63
2022/03/09 06:49:02;;;;;;;27.42;12.07;;;-0.40;99.90;;;;;;5003639;28;20500;-61
2022/03/09 06:51:28;;;;;;;23.52;11.88;;;-0.30;99.90;;;;;;5004893;28;20112;-61
2022/03/09 06:53:53;;;;;;;19.20;10.57;;;-0.30;99.90;;;;;;5009409;28;20088;-61
2022/03/09 06:56:19;;;;;;;23.92;11.10;;;-0.20;99.90;;;;;;5033461;28;20033;-60
2022/03/09 06:58:45;;;;;;;20.92;11.07;;;-0.10;99.90;;;;;;5011088;28;20040;-61
2022/03/09 07:01:11;;;;;;;30.15;11.32;;;-0.10;99.90;;;;;;5068566;22;20053;-57
2022/03/09 07:03:37;;;;;;;23.60;11.38;;;0.00;99.90;;;;;;5067196;28;20041;-59
2022/03/09 07:06:03;;;;;;;18.83;10.77;;;0.00;99.90;;;;;;5076364;28;20028;-58
2022/03/09 07:08:29;;;;;;;19.58;10.80;;;0.00;99.90;;;;;;5042286;28;20064;-58
2022/03/09 07:10:54;;;;;;;23.45;11.25;;;0.10;99.90;;;;;;5058143;28;20129;-58
2022/03/09 07:13:20;;;;;;;21.10;10.88;;;0.10;99.90;;;;;;5084941;28;20086;-57
2022/03/09 07:15:46;;;;;;;26.48;11.23;;;0.10;99.90;;;;;;5088186;28;20510;-58
2022/03/09 07:18:12;;;;;;;21.55;10.85;;;0.20;99.90;;;;;;5078629;28;20090;-58
2022/03/09 07:20:38;;;;;;;20.58;11.15;;;0.20;99.90;;;;;;5079800;28;20032;-59
2022/03/09 07:23:03;;;;;;;23.70;10.85;;;0.20;99.90;;;;;;5087800;28;20062;-59
2022/03/09 07:25:29;;;;;;;20.58;11.25;;;0.30;99.90;;;;;;5077322;28;20041;-57
2022/03/09 07:27:54;;;;;;;21.35;11.32;;;0.40;99.90;;;;;;5076482;28;20028;-58
2022/03/09 07:30:20;;;;;;;18.50;11.05;;;0.50;99.90;;;;;;5087893;28;20043;-58
2022/03/09 07:32:45;;;;;;;20.23;11.32;;;0.50;99.90;;;;;;5076865;28;20091;-59
2022/03/09 07:35:11;;;;;;;26.27;11.75;;;0.70;99.90;;;;;;5074128;28;20036;-58
2022/03/09 07:37:37;;;;;;;19.85;11.05;;;0.80;99.90;;;;;;5087629;28;20047;-58
2022/03/09 07:40:05;;;;;;;17.65;10.68;;;0.80;99.90;;;;;;5087168;28;20044;-58
2022/03/09 07:42:30;;;;;;;20.83;11.95;;;0.90;99.90;;;;;;5068633;28;20039;-59
2022/03/09 07:44:56;;;;;;;21.33;11.30;;;1.00;99.90;;;;;;5078407;28;20036;-59
2022/03/09 07:47:22;;;;;;;20.38;10.57;;;1.00;99.90;;;;;;5087540;28;20067;-59
2022/03/09 07:49:48;;;;;;;20.35;11.65;;;1.10;99.90;;;;;;5066196;28;20095;-58
2022/03/09 07:52:13;;;;;;;23.13;11.50;;;1.20;99.90;;;;;;5054473;28;20090;-58
2022/03/09 07:54:39;;;;;;;20.27;11.38;;;1.30;99.90;;;;;;5062291;28;20062;-59
2022/03/09 07:57:04;;;;;;;20.02;10.32;;;1.50;99.90;;;;;;5090830;28;20560;-58
2022/03/09 07:59:30;;;;;;;22.17;11.60;;;1.60;99.90;;;;;;5060895;28;20037;-59
2022/03/09 08:01:56;;;;;;;22.60;10.63;;;1.70;99.90;;;;;;5064350;28;20512;-58
2022/03/09 08:04:24;;;;;;;20.85;11.50;;;1.80;99.90;;;;;;5073750;28;20032;-59
2022/03/09 08:06:51;;;;;;;19.38;11.23;;;1.90;99.90;;;;;;5090638;28;20105;-59
2022/03/09 08:09:17;;;;;;;23.08;11.57;;;2.00;99.90;;;;;;5090845;28;20036;-60
2022/03/09 08:11:43;;;;;;;21.08;11.05;;;2.20;99.90;;;;;;5082187;28;20045;-58
2022/03/09 08:14:09;;;;;;;18.60;10.68;;;2.30;99.90;;;;;;5072444;28;20028;-59
2022/03/09 08:16:35;;;;;;;26.85;11.05;;;2.40;99.90;;;;;;5066715;28;20040;-56
2022/03/09 08:19:00;;;;;;;18.85;11.02;;;2.60;99.90;;;;;;5072151;28;20484;-58
2022/03/09 08:21:26;;;;;;;25.20;11.25;;;2.80;99.90;;;;;;5057680;28;20391;-59
2022/03/09 08:23:52;;;;;;;23.52;11.05;;;2.90;99.90;;;;;;5053895;28;20032;-59
2022/03/09 08:26:18;;;;;;;19.25;10.63;;;3.20;99.90;;;;;;5062191;28;20044;-59
2022/03/09 08:28:44;;;;;;;16.55;10.35;;;3.30;99.90;;;;;;5079866;28;20029;-59
2022/03/09 08:31:09;;;;;;;17.77;8.90;;;3.50;99.90;;;;;;5041816;28;20106;-59
2022/03/09 08:33:35;;;;;;;19.73;11.70;;;3.70;99.90;;;;;;5076917;28;20078;-59
2022/03/09 08:36:00;;;;;;;19.17;11.07;;;3.90;99.90;;;;;;5082460;28;20094;-58
2022/03/09 08:38:26;;;;;;;17.08;10.38;;;4.00;99.90;;;;;;5090446;28;20766;-59
2022/03/09 08:40:52;;;;;;;17.52;9.98;;;4.10;99.90;;;;;;5078913;28;20045;-59
2022/03/09 08:43:18;;;;;;;20.08;10.75;;;4.20;99.90;;;;;;5081274;28;20093;-59
2022/03/09 08:45:44;;;;;;;17.85;10.48;;;4.40;99.90;;;;;;5090328;28;20103;-59
2022/03/09 08:48:10;;;;;;;20.67;9.70;;;4.40;99.90;;;;;;5081242;28;20513;-58
2022/03/09 08:50:36;;;;;;;18.08;10.98;;;4.60;99.90;;;;;;5055152;28;20116;-59
2022/03/09 08:53:02;;;;;;;22.70;11.45;;;4.70;99.90;;;;;;5074408;28;20032;-59
2022/03/09 08:55:28;;;;;;;21.23;11.07;;;4.80;99.90;;;;;;5088348;28;20093;-58
2022/03/09 08:57:54;;;;;;;22.77;10.23;;;4.90;99.90;;;;;;5090255;28;20032;-58
2022/03/09 09:00:20;;;;;;;16.60;10.10;;;5.00;99.90;;;;;;5089299;28;20032;-59
2022/03/09 09:02:45;;;;;;;17.10;10.68;;;5.10;99.90;;;;;;5067703;28;20101;-59
2022/03/09 09:05:11;;;;;;;18.73;10.57;;;5.20;99.90;;;;;;5074788;28;20075;-59
2022/03/09 09:07:36;;;;;;;16.20;9.02;;;5.30;99.90;;;;;;5080813;28;20123;-59
2022/03/09 09:10:04;;;;;;;18.40;10.38;;;5.50;99.90;;;;;;5081265;28;20450;-60
2022/03/09 09:12:31;;;;;;;17.80;10.07;;;5.50;99.90;;;;;;5080690;28;20048;-59
2022/03/09 09:14:57;;;;;;;16.90;9.73;;;5.60;99.90;;;;;;5072856;28;20109;-58
2022/03/09 09:17:22;;;;;;;18.38;8.70;;;5.60;99.90;;;;;;5062810;28;20048;-59
2022/03/09 09:19:48;;;;;;;18.00;10.40;;;5.80;99.90;;;;;;5076681;28;20405;-59
2022/03/09 09:22:14;;;;;;;24.98;9.90;;;5.80;99.90;;;;;;5077779;28;20553;-59
2022/03/09 09:24:40;;;;;;;17.90;9.80;;;5.90;99.90;;;;;;5075663;28;20127;-59
2022/03/09 09:27:06;;;;;;;18.23;10.65;;;6.00;99.90;;;;;;5089148;28;20071;-59
2022/03/09 09:29:32;;;;;;;19.30;9.65;;;6.10;99.90;;;;;;5089791;28;20094;-60
2022/03/09 09:31:57;;;;;;;18.50;10.15;;;6.10;99.90;;;;;;5054701;28;20046;-60
2022/03/09 09:34:23;;;;;;;23.80;10.45;;;6.20;99.90;;;;;;5079390;28;20040;-60
2022/03/09 09:36:49;;;;;;;14.77;8.98;;;6.40;99.50;;;;;;5086604;28;20040;-59
2022/03/09 09:39:16;;;;;;;15.93;10.10;;;6.40;99.90;;;;;;5056915;28;20547;-60
2022/03/09 09:41:43;;;;;;;17.00;10.50;;;6.50;99.60;;;;;;5055813;28;20123;-60
2022/03/09 09:44:12;;;;;;;18.73;9.82;;;6.60;99.20;;;;;;5085702;28;20046;-60
2022/03/09 09:46:39;;;;;;;17.77;9.88;;;6.70;99.20;;;;;;5068060;28;20029;-60
2022/03/09 09:49:08;;;;;;;17.92;9.82;;;6.80;99.50;;;;;;5048330;28;20045;-60
2022/03/09 09:51:37;;;;;;;15.20;8.77;;;6.90;98.70;;;;;;5058223;28;20036;-60
2022/03/09 09:54:04;;;;;;;16.95;9.85;;;6.90;99.10;;;;;;5080968;28;20107;-60
2022/03/09 09:56:30;;;;;;;15.02;9.00;;;7.00;99.00;;;;;;5072773;28;20036;-60
2022/03/09 09:58:57;;;;;;;14.55;8.70;;;7.10;99.00;;;;;;5087654;28;20115;-60
2022/03/09 10:01:23;;;;;;;18.67;10.48;;;7.10;99.00;;;;;;5088764;28;20391;-60
2022/03/09 10:03:48;;;;;;;17.42;8.88;;;7.10;99.00;;;;;;5084237;28;20039;-60
2022/03/09 10:06:14;;;;;;;17.58;9.38;;;7.10;99.20;;;;;;5059638;28;20040;-60
2022/03/09 10:08:39;;;;;;;21.58;10.65;;;7.20;99.80;;;;;;5063851;28;20036;-59
2022/03/09 10:11:06;;;;;;;16.38;9.43;;;7.30;99.50;;;;;;5058435;28;20404;-59
2022/03/09 10:13:35;;;;;;;25.38;9.95;;;7.30;99.20;;;;;;5066129;28;20044;-59
2022/03/09 10:16:16;;;;;;;20.15;9.18;;;7.40;99.50;;;;;;5065126;28;20067;-59
2022/03/09 10:18:54;;;;;;;20.50;9.95;;;7.50;98.20;;;;;;5058573;28;20041;-59
2022/03/09 10:21:26;;;;;;;16.98;9.00;;;7.60;98.50;;;;;;5060231;28;20082;-59
2022/03/09 10:24:01;;;;;;;18.73;10.35;;;7.60;98.80;;;;;;5064447;28;20123;-59
2022/03/09 10:26:45;;;;;;;18.52;9.73;;;7.70;97.70;;;;;;5083498;28;20024;-60
2022/03/09 10:29:13;;;;;;;18.67;9.27;;;7.70;96.80;;;;;;5063413;28;20048;-59
2022/03/09 10:31:43;;;;;;;18.52;9.82;;;7.80;98.10;;;;;;5051967;28;20388;-60
2022/03/09 10:34:10;;;;;;;16.50;9.32;;;7.90;97.60;;;;;;5075139;28;20035;-60
2022/03/09 10:36:36;;;;;;;17.13;9.38;;;7.90;98.60;;;;;;5088513;28;20036;-59
2022/03/09 10:39:15;;;;;;;19.85;9.60;;;8.10;98.40;;;;;;5077205;28;20044;-60
2022/03/09 10:41:41;;;;;;;17.65;10.35;;;8.10;98.20;;;;;;5080994;28;20846;-60
2022/03/09 10:44:08;;;;;;;22.38;11.02;;;8.20;98.50;;;;;;5070156;28;20409;-60
2022/03/09 10:46:50;;;;;;;18.05;10.52;;;8.30;97.80;;;;;;5071939;28;20048;-60
2022/03/09 10:49:18;;;;;;;;;;;8.40;96.70;;;;;;5076489;28;20040;-59
2022/03/09 10:51:50;;;;;;;18.23;9.02;;;8.50;91.80;;;;;;5088262;28;19960;-60
2022/03/09 10:54:28;;;;;;;18.65;10.60;;;8.60;97.10;;;;;;5063298;28;20471;-60
2022/03/09 10:57:09;;;;;;;16.80;10.18;;;8.60;94.80;;;;;;5062243;28;20063;-60
2022/03/09 10:59:49;;;;;;;17.02;9.77;;;8.60;94.70;;;;;;5088174;28;20046;-60
2022/03/09 11:02:21;;;;;;;14.85;9.32;;;8.80;93.60;;;;;;5063366;28;20039;-59
2022/03/09 11:05:06;;;;;;;;;;;8.90;95.30;;;;;;5077138;28;20047;-60
2022/03/09 11:07:34;;;;;;;20.83;10.07;;;9.00;90.50;;;;;;5088157;28;19938;-60
2022/03/09 11:10:00;;;;;;;18.30;9.52;;;9.10;93.90;;;;;;5080764;28;20048;-60
2022/03/09 11:12:26;;;;;;;17.75;10.43;;;9.10;95.30;;;;;;5070888;28;20763;-60
2022/03/09 11:14:52;;;;;;;17.17;9.95;;;9.20;96.50;;;;;;5086267;28;20032;-60
2022/03/09 11:17:22;;;;;;;16.88;9.88;;;9.30;95.80;;;;;;5088281;28;20036;-59
2022/03/09 11:19:48;;;;;;;16.40;9.93;;;9.30;90.30;;;;;;5069320;28;20695;-60
2022/03/09 11:22:14;;;;;;;15.77;9.18;;;9.40;93.40;;;;;;5070997;28;20028;-59
2022/03/09 11:24:40;;;;;;;16.08;9.80;;;9.40;94.60;;;;;;5072748;28;20051;-60
2022/03/09 11:27:10;;;;;;;18.52;10.02;;;9.50;95.00;;;;;;5066328;28;20037;-60
2022/03/09 11:29:38;;;;;;;20.75;10.40;;;9.60;94.60;;;;;;5068292;28;20119;-59
2022/03/09 11:32:09;;;;;;;16.75;9.93;;;9.60;93.00;;;;;;5053926;28;20041;-60
2022/03/09 11:34:44;;;;;;;16.98;10.30;;;9.80;94.10;;;;;;5079442;28;20579;-60
2022/03/09 11:37:12;;;;;;;18.17;10.20;;;9.90;92.40;;;;;;5063576;28;20044;-60
2022/03/09 11:40:08;;;;;;;18.45;10.43;;;9.90;92.80;;;;;;5050951;28;20046;-60
2022/03/09 11:42:41;;;;;;;16.92;9.93;;;10.00;90.50;;;;;;5050327;28;20387;-59
2022/03/09 11:45:29;;;;;;;18.67;10.15;;;10.10;90.30;;;;;;5068356;28;20078;-59
2022/03/09 11:47:59;;;;;;;19.65;10.02;;;10.20;92.50;;;;;;5068178;28;20055;-59
2022/03/09 11:50:27;;;;;;;17.95;9.95;;;10.30;93.60;;;;;;5091321;28;20051;-59
2022/03/09 11:53:07;;;;;;;19.63;10.05;;;10.30;91.40;;;;;;5072705;28;20045;-59
2022/03/09 11:55:34;;;;;;;16.50;10.13;;;10.50;76.90;;;;;;5051270;28;20513;-59
2022/03/09 11:58:04;;;;;;;17.33;10.40;;;10.50;92.30;;;;;;5073286;28;20378;-59
2022/03/09 12:00:29;;;;;;;23.08;10.55;;;10.60;90.60;;;;;;5064357;28;20045;-59
2022/03/09 12:02:56;;;;;;;18.55;10.05;;;10.60;91.90;;;;;;5059324;28;20040;-60
2022/03/09 12:05:24;;;;;;;19.25;10.85;;;10.70;88.70;;;;;;5070350;28;20438;-59
2022/03/09 12:08:00;;;;;;;20.45;10.65;;;10.80;92.10;;;;;;5071669;28;20032;-60
2022/03/09 12:10:42;;;;;;;19.17;10.70;;;10.90;87.60;;;;;;5039010;28;20047;-60
2022/03/09 12:13:20;;;;;;;17.33;10.90;;;11.00;79.30;;;;;;5075681;28;20462;-59
2022/03/09 12:16:01;;;;;;;16.05;9.95;;;11.10;91.10;;;;;;5091293;28;20036;-60
2022/03/09 12:18:41;;;;;;;17.38;10.38;;;11.20;90.80;;;;;;5053616;28;20055;-59
2022/03/09 12:21:09;;;;;;;17.90;10.25;;;11.30;81.80;;;;;;5075546;28;20113;-59
2022/03/09 12:23:35;;;;;;;18.20;10.52;;;11.30;84.10;;;;;;5090060;28;20067;-58
2022/03/09 12:26:01;;;;;;;18.05;10.90;;;11.40;90.70;;;;;;5077775;28;20035;-59
2022/03/09 12:28:34;;;;;;;18.58;11.13;;;11.50;91.10;;;;;;5089731;28;20031;-60
2022/03/09 12:30:59;;;;;;;16.38;10.05;;;11.50;91.80;;;;;;5072345;28;20131;-59
2022/03/09 12:33:38;;;;;;;18.48;10.82;;;11.70;91.60;;;;;;5090387;28;20123;-59
2022/03/09 12:36:18;;;;;;;18.77;10.65;;;11.70;80.90;;;;;;5079956;28;20084;-59
2022/03/09 12:38:53;;;;;;;17.50;10.40;;;11.80;77.60;;;;;;5090501;28;20036;-60
2022/03/09 12:41:30;;;;;;;23.13;10.65;;;11.80;81.70;;;;;;5086528;28;20092;-60
2022/03/09 12:44:02;;;;;;;17.90;10.80;;;11.80;81.90;;;;;;5077004;28;20059;-60
2022/03/09 12:46:29;;;;;;;16.73;11.20;;;11.80;82.50;;;;;;5090348;28;20111;-60
2022/03/09 12:49:02;;;;;;;17.88;11.10;;;11.90;83.90;;;;;;5088341;28;20036;-59
2022/03/09 12:51:28;;;;;;;17.08;10.73;;;12.00;73.20;;;;;;5062692;28;20108;-60
2022/03/09 12:53:53;;;;;;;19.20;12.23;;;12.10;78.70;;;;;;5087933;28;20111;-60
2022/03/09 12:56:21;;;;;;;23.45;11.48;;;12.10;76.00;;;;;;5084476;28;20036;-60
2022/03/09 12:58:47;;;;;;;19.73;11.15;;;12.20;82.60;;;;;;5065079;28;20063;-58
2022/03/09 13:01:14;;;;;;;17.48;10.98;;;12.20;75.80;;;;;;5077824;28;20124;-60
2022/03/09 13:03:44;;;;;;;18.77;11.57;;;12.30;80.40;;;;;;5089794;28;20468;-60
2022/03/09 13:06:31;;;;;;;18.13;10.95;;;12.30;72.00;;;;;;5087512;28;20036;-60